createdAt,value
2017-02-12T00:00:30.712Z,0
2017-02-12T00:01:38.803Z,0
2017-02-12T00:02:46.895Z,0
2017-02-12T00:03:54.984Z,0
2017-02-12T00:05:03.074Z,0
2017-02-12T00:06:11.169Z,0
2017-02-12T00:07:19.254Z,0
2017-02-12T00:08:27.351Z,0
2017-02-12T00:09:35.438Z,0
2017-02-12T00:10:43.535Z,0
2017-02-12T00:11:51.619Z,0
2017-02-12T00:12:59.710Z,0
2017-02-12T00:14:07.791Z,0
2017-02-12T00:15:15.884Z,0
2017-02-12T00:16:23.975Z,0
2017-02-12T00:17:32.062Z,0
2017-02-12T00:18:40.149Z,0
2017-02-12T00:19:48.237Z,0
2017-02-12T00:20:56.324Z,0
2017-02-12T00:22:04.410Z,0
2017-02-12T00:23:12.497Z,0
2017-02-12T00:24:20.592Z,0
2017-02-12T00:25:28.683Z,0
2017-02-12T00:26:36.767Z,0
2017-02-12T00:27:44.853Z,0
2017-02-12T00:28:52.952Z,0
2017-02-12T00:30:01.047Z,0
2017-02-12T00:31:09.131Z,0
2017-02-12T00:32:17.319Z,0
2017-02-12T00:33:25.320Z,0
2017-02-12T00:34:33.414Z,0
2017-02-12T00:35:41.497Z,0
2017-02-12T00:36:49.593Z,0
2017-02-12T00:37:57.679Z,0
2017-02-12T00:39:05.771Z,0
2017-02-12T00:40:13.867Z,0
2017-02-12T00:41:21.953Z,0
2017-02-12T00:42:30.040Z,0
2017-02-12T00:43:38.135Z,0
2017-02-12T00:44:46.224Z,0
2017-02-12T00:45:54.311Z,0
2017-02-12T00:47:02.398Z,0
2017-02-12T00:48:10.491Z,0
2017-02-12T00:49:18.626Z,0
2017-02-12T00:50:26.663Z,0
2017-02-12T00:51:34.759Z,0
2017-02-12T00:52:42.851Z,0
2017-02-12T00:53:50.944Z,0
2017-02-12T00:54:59.033Z,0
2017-02-12T00:56:07.127Z,0
2017-02-12T00:57:15.217Z,0
2017-02-12T00:58:23.301Z,0
2017-02-12T00:59:31.392Z,0
2017-02-12T01:00:39.479Z,0
2017-02-12T01:01:47.585Z,0
2017-02-12T01:02:55.659Z,0
2017-02-12T01:04:03.755Z,0
2017-02-12T01:05:11.847Z,0
2017-02-12T01:06:19.928Z,0
2017-02-12T01:07:28.024Z,0
2017-02-12T01:08:36.115Z,0
2017-02-12T01:09:44.207Z,0
2017-02-12T01:10:52.293Z,0
2017-02-12T01:12:00.384Z,0
2017-02-12T01:13:08.470Z,0
2017-02-12T01:14:16.561Z,0
2017-02-12T01:15:24.653Z,0
2017-02-12T01:16:32.746Z,0
2017-02-12T01:17:40.834Z,0
2017-02-12T01:18:48.924Z,0
2017-02-12T01:19:57.019Z,0
2017-02-12T01:21:05.104Z,0
2017-02-12T01:22:13.195Z,0
2017-02-12T01:23:21.283Z,0
2017-02-12T01:24:29.374Z,0
2017-02-12T01:25:37.464Z,0
2017-02-12T01:26:45.553Z,0
2017-02-12T01:27:53.650Z,0
2017-02-12T01:29:01.741Z,0
2017-02-12T01:30:09.830Z,0
2017-02-12T01:31:17.917Z,0
2017-02-12T01:32:26.014Z,0
2017-02-12T01:33:34.101Z,0
2017-02-12T01:34:42.182Z,0
2017-02-12T01:35:50.277Z,0
2017-02-12T01:36:58.360Z,0
2017-02-12T01:38:06.445Z,0
2017-02-12T01:39:14.540Z,0
2017-02-12T01:40:22.627Z,0
2017-02-12T01:41:30.710Z,0
2017-02-12T01:42:38.798Z,0
2017-02-12T01:43:46.890Z,0
2017-02-12T01:44:54.972Z,0
2017-02-12T01:46:03.054Z,0
2017-02-12T01:47:11.149Z,0
2017-02-12T01:48:19.236Z,0
2017-02-12T01:49:27.322Z,0
2017-02-12T01:50:35.412Z,0
2017-02-12T01:51:43.498Z,0
2017-02-12T01:52:51.589Z,0
2017-02-12T01:53:59.673Z,0
2017-02-12T01:55:07.759Z,0
2017-02-12T01:56:15.848Z,0
2017-02-12T01:57:23.939Z,0
2017-02-12T01:58:32.025Z,0
2017-02-12T01:59:40.116Z,0
2017-02-12T02:00:48.199Z,0
2017-02-12T02:01:56.285Z,0
2017-02-12T02:03:04.377Z,0
2017-02-12T02:04:12.470Z,0
2017-02-12T02:05:20.548Z,0
2017-02-12T02:06:28.639Z,0
2017-02-12T02:07:36.727Z,0
2017-02-12T02:08:44.816Z,0
2017-02-12T02:09:52.898Z,0
2017-02-12T02:11:00.992Z,0
2017-02-12T02:12:09.086Z,0
2017-02-12T02:13:17.168Z,0
2017-02-12T02:14:25.259Z,0
2017-02-12T02:15:33.348Z,0
2017-02-12T02:16:41.429Z,0
2017-02-12T02:17:49.518Z,0
2017-02-12T02:18:57.614Z,0
2017-02-12T02:20:05.702Z,0
2017-02-12T02:21:13.790Z,0
2017-02-12T02:22:21.878Z,0
2017-02-12T02:23:29.966Z,0
2017-02-12T02:24:38.049Z,0
2017-02-12T02:25:46.134Z,0
2017-02-12T02:26:54.226Z,0
2017-02-12T02:28:02.314Z,0
2017-02-12T02:29:10.398Z,0
2017-02-12T02:30:18.489Z,0
2017-02-12T02:31:26.580Z,0
2017-02-12T02:32:34.675Z,0
2017-02-12T02:33:42.764Z,0
2017-02-12T02:34:50.849Z,0
2017-02-12T02:35:58.939Z,0
2017-02-12T02:37:07.024Z,0
2017-02-12T02:38:15.114Z,0
2017-02-12T02:39:23.202Z,0
2017-02-12T02:40:31.284Z,0
2017-02-12T02:41:39.373Z,0
2017-02-12T02:42:47.468Z,0
2017-02-12T02:43:55.553Z,0
2017-02-12T02:45:03.647Z,0
2017-02-12T02:46:11.737Z,0
2017-02-12T02:47:19.824Z,0
2017-02-12T02:48:27.908Z,0
2017-02-12T02:49:35.994Z,0
2017-02-12T02:50:44.085Z,0
2017-02-12T02:51:52.177Z,0
2017-02-12T02:53:00.263Z,0
2017-02-12T02:54:08.354Z,0
2017-02-12T02:55:16.440Z,0
2017-02-12T02:56:24.528Z,0
2017-02-12T02:57:32.613Z,0
2017-02-12T02:58:40.708Z,0
2017-02-12T02:59:48.794Z,0
2017-02-12T03:00:56.968Z,0
2017-02-12T03:02:04.974Z,0
2017-02-12T03:03:13.063Z,0
2017-02-12T03:04:21.145Z,0
2017-02-12T03:05:29.236Z,0
2017-02-12T03:06:37.335Z,0
2017-02-12T03:07:45.415Z,0
2017-02-12T03:08:53.505Z,0
2017-02-12T03:10:01.597Z,0
2017-02-12T03:11:09.687Z,0
2017-02-12T03:12:17.773Z,0
2017-02-12T03:13:25.865Z,0
2017-02-12T03:14:33.953Z,0
2017-02-12T03:15:42.033Z,0
2017-02-12T03:16:50.128Z,0
2017-02-12T03:17:58.244Z,0
2017-02-12T03:19:06.306Z,0
2017-02-12T03:20:14.405Z,0
2017-02-12T03:21:22.487Z,0
2017-02-12T03:22:30.575Z,0
2017-02-12T03:23:38.665Z,0
2017-02-12T03:24:46.753Z,0
2017-02-12T03:25:54.847Z,0
2017-02-12T03:27:02.931Z,0
2017-02-12T03:28:11.016Z,0
2017-02-12T03:29:19.114Z,0
2017-02-12T03:30:27.203Z,0
2017-02-12T03:31:35.292Z,0
2017-02-12T03:32:43.377Z,0
2017-02-12T03:33:51.467Z,0
2017-02-12T03:34:59.628Z,0
2017-02-12T03:36:07.637Z,0
2017-02-12T03:37:15.729Z,0
2017-02-12T03:38:23.820Z,0
2017-02-12T03:39:31.903Z,0
2017-02-12T03:40:39.992Z,0
2017-02-12T03:41:48.087Z,0
2017-02-12T03:42:56.178Z,0
2017-02-12T03:44:04.264Z,0
2017-02-12T03:45:12.355Z,0
2017-02-12T03:46:20.443Z,0
2017-02-12T03:47:28.529Z,0
2017-02-12T03:48:36.617Z,0
2017-02-12T03:49:44.708Z,0
2017-02-12T03:50:52.787Z,0
2017-02-12T03:52:00.875Z,0
2017-02-12T03:53:08.976Z,0
2017-02-12T03:54:17.062Z,0
2017-02-12T03:55:25.155Z,0
2017-02-12T03:56:33.237Z,0
2017-02-12T03:57:41.331Z,0
2017-02-12T03:58:49.427Z,0
2017-02-12T03:59:57.510Z,0
2017-02-12T04:01:05.600Z,0
2017-02-12T04:02:13.687Z,0
2017-02-12T04:03:21.827Z,0
2017-02-12T04:04:29.863Z,0
2017-02-12T04:05:37.950Z,0
2017-02-12T04:06:46.038Z,0
2017-02-12T04:07:54.123Z,0
2017-02-12T04:09:02.213Z,0
2017-02-12T04:10:10.302Z,0
2017-02-12T04:11:18.393Z,0
2017-02-12T04:12:26.480Z,0
2017-02-12T04:13:34.570Z,0
2017-02-12T04:14:42.658Z,0
2017-02-12T04:15:50.748Z,0
2017-02-12T04:16:58.837Z,0
2017-02-12T04:18:06.924Z,0
2017-02-12T04:19:15.009Z,0
2017-02-12T04:20:23.101Z,0
2017-02-12T04:21:31.194Z,0
2017-02-12T04:22:39.281Z,0
2017-02-12T04:23:47.365Z,0
2017-02-12T04:24:55.459Z,0
2017-02-12T04:26:03.552Z,0
2017-02-12T04:27:11.638Z,0
2017-02-12T04:28:19.729Z,0
2017-02-12T04:29:27.822Z,0
2017-02-12T04:30:35.909Z,0
2017-02-12T04:31:43.991Z,0
2017-02-12T04:32:52.099Z,0
2017-02-12T04:34:00.180Z,0
2017-02-12T04:35:08.261Z,0
2017-02-12T04:36:16.359Z,0
2017-02-12T04:37:24.446Z,0
2017-02-12T04:38:32.530Z,0
2017-02-12T04:39:40.623Z,0
2017-02-12T04:40:48.711Z,0
2017-02-12T04:41:56.802Z,0
2017-02-12T04:43:04.885Z,0
2017-02-12T04:44:12.977Z,0
2017-02-12T04:45:21.065Z,0
2017-02-12T04:46:29.154Z,0
2017-02-12T04:47:37.235Z,0
2017-02-12T04:48:45.331Z,0
2017-02-12T04:49:53.417Z,0
2017-02-12T04:51:01.500Z,0
2017-02-12T04:52:09.591Z,0
2017-02-12T04:53:17.679Z,0
2017-02-12T04:54:25.763Z,0
2017-02-12T04:55:33.850Z,0
2017-02-12T04:56:41.944Z,0
2017-02-12T04:57:50.032Z,0
2017-02-12T04:58:58.116Z,0
2017-02-12T05:00:06.205Z,0
2017-02-12T05:01:14.294Z,0
2017-02-12T05:02:22.379Z,0
2017-02-12T05:03:30.465Z,0
2017-02-12T05:04:38.563Z,0
2017-02-12T05:05:46.654Z,0
2017-02-12T05:06:54.737Z,0
2017-02-12T05:08:02.833Z,0
2017-02-12T05:09:10.922Z,0
2017-02-12T05:10:19.008Z,0
2017-02-12T05:11:27.098Z,0
2017-02-12T05:12:35.183Z,0
2017-02-12T05:13:43.267Z,0
2017-02-12T05:14:51.379Z,0
2017-02-12T05:15:59.445Z,0
2017-02-12T05:17:07.533Z,0
2017-02-12T05:18:15.616Z,0
2017-02-12T05:19:23.704Z,0
2017-02-12T05:20:31.791Z,0
2017-02-12T05:21:39.878Z,0
2017-02-12T05:22:47.964Z,0
2017-02-12T05:23:56.052Z,0
2017-02-12T05:25:04.138Z,0
2017-02-12T05:26:12.229Z,0
2017-02-12T05:27:20.323Z,0
2017-02-12T05:28:28.410Z,0
2017-02-12T05:29:36.499Z,0
2017-02-12T05:30:44.589Z,0
2017-02-12T05:31:52.680Z,0
2017-02-12T05:33:00.774Z,0
2017-02-12T05:34:09.013Z,0
2017-02-12T05:35:16.956Z,0
2017-02-12T05:36:25.041Z,0
2017-02-12T05:37:33.122Z,0
2017-02-12T05:38:41.210Z,0
2017-02-12T05:39:49.544Z,0
2017-02-12T05:40:57.389Z,0
2017-02-12T05:42:05.473Z,0
2017-02-12T05:43:13.569Z,0
2017-02-12T05:44:21.651Z,0
2017-02-12T05:45:29.743Z,0
2017-02-12T05:46:37.823Z,0
2017-02-12T05:47:45.912Z,0
2017-02-12T05:48:53.999Z,0
2017-02-12T05:50:02.084Z,0
2017-02-12T05:51:10.173Z,0
2017-02-12T05:52:18.264Z,0
2017-02-12T05:53:26.347Z,0
2017-02-12T05:54:34.436Z,0
2017-02-12T05:55:42.527Z,0
2017-02-12T05:56:50.618Z,0
2017-02-12T05:57:58.706Z,0
2017-02-12T05:59:06.827Z,0
2017-02-12T06:00:14.883Z,0
2017-02-12T06:01:22.971Z,0
2017-02-12T06:02:31.056Z,0
2017-02-12T06:03:39.188Z,0
2017-02-12T06:04:47.237Z,0
2017-02-12T06:05:55.320Z,0
2017-02-12T06:07:03.410Z,0
2017-02-12T06:08:11.496Z,0
2017-02-12T06:09:19.584Z,0
2017-02-12T06:10:27.669Z,0
2017-02-12T06:11:35.760Z,0
2017-02-12T06:12:43.845Z,0
2017-02-12T06:13:51.929Z,0
2017-02-12T06:15:00.021Z,0
2017-02-12T06:16:08.110Z,0
2017-02-12T06:17:16.301Z,0
2017-02-12T06:18:24.288Z,0
2017-02-12T06:19:32.381Z,0
2017-02-12T06:20:41.133Z,0
2017-02-12T06:21:48.558Z,0
2017-02-12T06:22:56.652Z,0
2017-02-12T06:24:04.821Z,0
2017-02-12T06:25:12.822Z,0
2017-02-12T06:26:20.913Z,0
2017-02-12T06:27:29.004Z,0
2017-02-12T06:28:37.435Z,0
2017-02-12T06:29:45.173Z,0
2017-02-12T06:30:53.427Z,0
2017-02-12T06:32:01.352Z,0
2017-02-12T06:33:09.436Z,0
2017-02-12T06:34:17.526Z,0
2017-02-12T06:35:25.611Z,0
2017-02-12T06:36:33.698Z,0
2017-02-12T06:37:41.803Z,0
2017-02-12T06:38:49.872Z,0
2017-02-12T06:39:57.957Z,0
2017-02-12T06:41:06.050Z,0
2017-02-12T06:42:14.137Z,0
2017-02-12T06:43:22.495Z,4
2017-02-12T06:44:30.313Z,4
2017-02-12T06:45:38.397Z,4
2017-02-12T06:46:46.489Z,4
2017-02-12T06:47:54.580Z,0
2017-02-12T06:49:02.672Z,0
2017-02-12T06:50:10.764Z,0
2017-02-12T06:51:18.850Z,0
2017-02-12T06:52:26.933Z,4
2017-02-12T06:53:35.028Z,4
2017-02-12T06:54:43.126Z,4
2017-02-12T06:55:51.665Z,4
2017-02-12T06:56:59.316Z,4
2017-02-12T06:58:07.402Z,0
2017-02-12T06:59:15.493Z,4
2017-02-12T07:00:23.580Z,4
2017-02-12T07:01:31.668Z,4
2017-02-12T07:02:39.757Z,4
2017-02-12T07:03:47.840Z,4
2017-02-12T07:04:55.930Z,4
2017-02-12T07:06:04.021Z,4
2017-02-12T07:07:12.107Z,4
2017-02-12T07:08:20.203Z,4
2017-02-12T07:09:28.284Z,4
2017-02-12T07:10:36.374Z,8
2017-02-12T07:11:44.496Z,4
2017-02-12T07:12:52.549Z,4
2017-02-12T07:14:00.638Z,8
2017-02-12T07:15:08.730Z,4
2017-02-12T07:16:16.809Z,4
2017-02-12T07:17:24.898Z,8
2017-02-12T07:18:32.990Z,8
2017-02-12T07:19:41.086Z,8
2017-02-12T07:20:49.171Z,8
2017-02-12T07:21:57.261Z,8
2017-02-12T07:23:05.350Z,8
2017-02-12T07:24:13.441Z,8
2017-02-12T07:25:21.529Z,8
2017-02-12T07:26:29.621Z,8
2017-02-12T07:27:37.706Z,8
2017-02-12T07:28:45.794Z,12
2017-02-12T07:29:53.883Z,12
2017-02-12T07:31:01.977Z,12
2017-02-12T07:32:10.065Z,12
2017-02-12T07:33:18.148Z,12
2017-02-12T07:34:26.247Z,12
2017-02-12T07:35:34.375Z,12
2017-02-12T07:36:42.429Z,12
2017-02-12T07:37:50.517Z,16
2017-02-12T07:38:58.604Z,12
2017-02-12T07:40:06.688Z,16
2017-02-12T07:41:14.780Z,12
2017-02-12T07:42:22.866Z,12
2017-02-12T07:43:30.957Z,16
2017-02-12T07:44:39.039Z,16
2017-02-12T07:45:47.138Z,12
2017-02-12T07:46:55.224Z,16
2017-02-12T07:48:03.310Z,12
2017-02-12T07:49:11.399Z,16
2017-02-12T07:50:19.492Z,16
2017-02-12T07:51:27.575Z,12
2017-02-12T07:52:35.673Z,12
2017-02-12T07:53:43.757Z,16
2017-02-12T07:54:51.848Z,12
2017-02-12T07:55:59.942Z,16
2017-02-12T07:57:08.031Z,16
2017-02-12T07:58:16.165Z,16
2017-02-12T07:59:24.206Z,12
2017-02-12T08:00:32.290Z,16
2017-02-12T08:01:40.390Z,12
2017-02-12T08:02:49.042Z,16
2017-02-12T08:03:56.568Z,12
2017-02-12T08:05:04.659Z,12
2017-02-12T08:06:12.744Z,12
2017-02-12T08:07:20.839Z,12
2017-02-12T08:08:28.922Z,12
2017-02-12T08:09:37.016Z,12
2017-02-12T08:10:45.106Z,16
2017-02-12T08:11:53.186Z,12
2017-02-12T08:13:01.279Z,12
2017-02-12T08:14:09.370Z,16
2017-02-12T08:15:17.451Z,12
2017-02-12T08:16:25.547Z,16
2017-02-12T08:17:33.644Z,16
2017-02-12T08:18:41.731Z,16
2017-02-12T08:19:50.484Z,16
2017-02-12T08:20:58.317Z,16
2017-02-12T08:22:05.994Z,16
2017-02-12T08:23:14.302Z,20
2017-02-12T08:24:22.162Z,20
2017-02-12T08:25:30.257Z,16
2017-02-12T08:26:38.342Z,20
2017-02-12T08:27:46.430Z,20
2017-02-12T08:28:54.519Z,20
2017-02-12T08:30:02.608Z,20
2017-02-12T08:31:10.691Z,20
2017-02-12T08:32:18.779Z,20
2017-02-12T08:33:26.869Z,16
2017-02-12T08:34:35.517Z,24
2017-02-12T08:35:43.046Z,24
2017-02-12T08:36:51.238Z,20
2017-02-12T08:37:59.233Z,24
2017-02-12T08:39:07.320Z,24
2017-02-12T08:40:15.404Z,24
2017-02-12T08:41:23.498Z,24
2017-02-12T08:42:31.580Z,24
2017-02-12T08:43:39.664Z,24
2017-02-12T08:44:47.760Z,24
2017-02-12T08:45:56.473Z,24
2017-02-12T08:47:03.939Z,28
2017-02-12T08:48:12.023Z,32
2017-02-12T08:49:20.182Z,32
2017-02-12T08:50:28.196Z,32
2017-02-12T08:51:36.288Z,36
2017-02-12T08:52:44.378Z,32
2017-02-12T08:53:52.503Z,32
2017-02-12T08:55:00.547Z,28
2017-02-12T08:56:08.646Z,28
2017-02-12T08:57:16.735Z,28
2017-02-12T08:58:24.823Z,28
2017-02-12T08:59:33.156Z,36
2017-02-12T09:00:41.003Z,32
2017-02-12T09:01:49.096Z,32
2017-02-12T09:02:57.180Z,28
2017-02-12T09:04:05.274Z,32
2017-02-12T09:05:13.368Z,32
2017-02-12T09:06:21.509Z,32
2017-02-12T09:07:29.533Z,32
2017-02-12T09:08:37.660Z,36
2017-02-12T09:09:45.730Z,32
2017-02-12T09:10:53.807Z,32
2017-02-12T09:12:01.895Z,36
2017-02-12T09:13:09.981Z,36
2017-02-12T09:14:18.067Z,36
2017-02-12T09:15:26.152Z,36
2017-02-12T09:16:34.244Z,40
2017-02-12T09:17:42.336Z,36
2017-02-12T09:18:50.417Z,36
2017-02-12T09:19:58.517Z,36
2017-02-12T09:21:06.604Z,36
2017-02-12T09:22:14.698Z,36
2017-02-12T09:23:22.833Z,40
2017-02-12T09:24:30.876Z,36
2017-02-12T09:25:38.958Z,40
2017-02-12T09:26:47.040Z,36
2017-02-12T09:27:55.134Z,36
2017-02-12T09:29:03.221Z,40
2017-02-12T09:30:11.306Z,36
2017-02-12T09:31:19.396Z,44
2017-02-12T09:32:27.488Z,44
2017-02-12T09:33:35.576Z,40
2017-02-12T09:34:43.663Z,36
2017-02-12T09:35:51.749Z,32
2017-02-12T09:36:59.841Z,40
2017-02-12T09:38:07.924Z,36
2017-02-12T09:39:16.014Z,36
2017-02-12T09:40:24.105Z,36
2017-02-12T09:41:32.195Z,36
2017-02-12T09:42:40.284Z,36
2017-02-12T09:43:48.369Z,40
2017-02-12T09:44:56.468Z,40
2017-02-12T09:46:04.561Z,36
2017-02-12T09:47:12.642Z,36
2017-02-12T09:48:20.733Z,36
2017-02-12T09:49:28.819Z,32
2017-02-12T09:50:36.907Z,36
2017-02-12T09:51:44.991Z,32
2017-02-12T09:52:53.080Z,28
2017-02-12T09:54:01.166Z,32
2017-02-12T09:55:09.253Z,36
2017-02-12T09:56:17.343Z,36
2017-02-12T09:57:25.964Z,36
2017-02-12T09:58:33.525Z,28
2017-02-12T09:59:41.606Z,28
2017-02-12T10:00:49.695Z,32
2017-02-12T10:01:57.786Z,32
2017-02-12T10:03:05.876Z,28
2017-02-12T10:04:13.963Z,32
2017-02-12T10:05:22.048Z,28
2017-02-12T10:06:30.136Z,32
2017-02-12T10:07:38.229Z,32
2017-02-12T10:08:46.319Z,28
2017-02-12T10:09:54.401Z,32
2017-02-12T10:11:02.491Z,36
2017-02-12T10:12:10.581Z,32
2017-02-12T10:13:18.675Z,32
2017-02-12T10:14:26.757Z,32
2017-02-12T10:15:34.854Z,32
2017-02-12T10:16:42.933Z,32
2017-02-12T10:17:51.019Z,24
2017-02-12T10:18:59.114Z,24
2017-02-12T10:20:07.203Z,28
2017-02-12T10:21:15.290Z,28
2017-02-12T10:22:23.373Z,28
2017-02-12T10:23:31.476Z,32
2017-02-12T10:24:39.563Z,32
2017-02-12T10:25:47.644Z,32
2017-02-12T10:26:55.740Z,28
2017-02-12T10:28:03.824Z,28
2017-02-12T10:29:11.906Z,32
2017-02-12T10:30:19.995Z,36
2017-02-12T10:31:28.091Z,36
2017-02-12T10:32:36.178Z,36
2017-02-12T10:33:44.262Z,36
2017-02-12T10:34:52.349Z,36
2017-02-12T10:36:00.441Z,36
2017-02-12T10:37:08.530Z,32
2017-02-12T10:38:16.614Z,36
2017-02-12T10:39:24.744Z,32
2017-02-12T10:40:32.787Z,28
2017-02-12T10:41:40.871Z,28
2017-02-12T10:42:48.964Z,32
2017-02-12T10:43:57.057Z,32
2017-02-12T10:45:05.145Z,28
2017-02-12T10:46:13.226Z,32
2017-02-12T10:47:21.317Z,32
2017-02-12T10:48:29.452Z,28
2017-02-12T10:49:37.491Z,28
2017-02-12T10:50:45.583Z,24
2017-02-12T10:51:53.667Z,32
2017-02-12T10:53:01.755Z,32
2017-02-12T10:54:09.838Z,32
2017-02-12T10:55:17.930Z,32
2017-02-12T10:56:26.020Z,32
2017-02-12T10:57:34.103Z,36
2017-02-12T10:58:42.190Z,36
2017-02-12T10:59:50.283Z,32
2017-02-12T11:00:58.365Z,28
2017-02-12T11:02:06.452Z,28
2017-02-12T11:03:14.543Z,28
2017-02-12T11:04:22.624Z,32
2017-02-12T11:05:30.712Z,28
2017-02-12T11:06:38.812Z,28
2017-02-12T11:07:46.897Z,32
2017-02-12T11:08:55.000Z,28
2017-02-12T11:10:03.078Z,28
2017-02-12T11:11:11.166Z,32
2017-02-12T11:12:19.257Z,36
2017-02-12T11:13:27.339Z,36
2017-02-12T11:14:35.433Z,36
2017-02-12T11:15:43.521Z,36
2017-02-12T11:16:51.606Z,36
2017-02-12T11:17:59.703Z,36
2017-02-12T11:19:07.797Z,36
2017-02-12T11:20:15.878Z,36
2017-02-12T11:21:23.959Z,36
2017-02-12T11:22:32.055Z,36
2017-02-12T11:23:40.141Z,36
2017-02-12T11:24:48.225Z,36
2017-02-12T11:25:56.321Z,36
2017-02-12T11:27:04.407Z,36
2017-02-12T11:28:12.491Z,36
2017-02-12T11:29:20.579Z,36
2017-02-12T11:30:28.675Z,36
2017-02-12T11:31:36.763Z,40
2017-02-12T11:32:44.846Z,40
2017-02-12T11:33:52.938Z,40
2017-02-12T11:35:01.084Z,36
2017-02-12T11:36:09.123Z,36
2017-02-12T11:37:17.205Z,40
2017-02-12T11:38:25.296Z,36
2017-02-12T11:39:33.377Z,36
2017-02-12T11:40:41.467Z,32
2017-02-12T11:41:49.560Z,40
2017-02-12T11:42:57.647Z,40
2017-02-12T11:44:05.735Z,36
2017-02-12T11:45:13.819Z,40
2017-02-12T11:46:21.914Z,40
2017-02-12T11:47:30.129Z,40
2017-02-12T11:48:38.096Z,40
2017-02-12T11:49:46.178Z,36
2017-02-12T11:50:54.273Z,40
2017-02-12T11:52:02.394Z,36
2017-02-12T11:53:10.452Z,40
2017-02-12T11:54:18.539Z,44
2017-02-12T11:55:26.623Z,40
2017-02-12T11:56:34.709Z,40
2017-02-12T11:57:42.803Z,40
2017-02-12T11:58:50.889Z,36
2017-02-12T11:59:58.983Z,36
2017-02-12T12:01:07.065Z,36
2017-02-12T12:02:15.149Z,40
2017-02-12T12:03:23.232Z,36
2017-02-12T12:04:31.535Z,36
2017-02-12T12:05:39.408Z,36
2017-02-12T12:06:47.504Z,40
2017-02-12T12:07:55.587Z,36
2017-02-12T12:09:03.710Z,40
2017-02-12T12:10:11.771Z,36
2017-02-12T12:11:19.856Z,32
2017-02-12T12:12:27.940Z,36
2017-02-12T12:13:36.027Z,36
2017-02-12T12:14:44.115Z,36
2017-02-12T12:15:52.201Z,36
2017-02-12T12:17:00.293Z,44
2017-02-12T12:18:08.384Z,40
2017-02-12T12:19:16.476Z,36
2017-02-12T12:20:24.559Z,40
2017-02-12T12:21:32.656Z,36
2017-02-12T12:22:40.746Z,40
2017-02-12T12:23:48.833Z,40
2017-02-12T12:24:56.926Z,36
2017-02-12T12:26:05.016Z,40
2017-02-12T12:27:13.097Z,32
2017-02-12T12:28:21.183Z,40
2017-02-12T12:29:29.274Z,40
2017-02-12T12:30:37.361Z,40
2017-02-12T12:31:45.445Z,36
2017-02-12T12:32:53.540Z,40
2017-02-12T12:34:01.627Z,36
2017-02-12T12:35:09.717Z,36
2017-02-12T12:36:17.800Z,40
2017-02-12T12:37:25.892Z,40
2017-02-12T12:38:33.988Z,40
2017-02-12T12:39:42.071Z,36
2017-02-12T12:40:50.170Z,40
2017-02-12T12:41:58.247Z,40
2017-02-12T12:43:06.343Z,40
2017-02-12T12:44:14.428Z,40
2017-02-12T12:45:22.516Z,44
2017-02-12T12:46:30.601Z,40
2017-02-12T12:47:38.686Z,36
2017-02-12T12:48:46.775Z,40
2017-02-12T12:49:55.387Z,36
2017-02-12T12:51:02.956Z,40
2017-02-12T12:52:11.043Z,40
2017-02-12T12:53:19.132Z,40
2017-02-12T12:54:27.230Z,40
2017-02-12T12:55:35.302Z,36
2017-02-12T12:56:43.395Z,40
2017-02-12T12:57:51.481Z,40
2017-02-12T12:58:59.572Z,36
2017-02-12T13:00:07.652Z,36
2017-02-12T13:01:15.748Z,36
2017-02-12T13:02:23.833Z,36
2017-02-12T13:03:31.916Z,40
2017-02-12T13:04:40.005Z,40
2017-02-12T13:05:48.091Z,40
2017-02-12T13:06:56.177Z,40
2017-02-12T13:08:04.265Z,36
2017-02-12T13:09:12.356Z,36
2017-02-12T13:10:20.447Z,40
2017-02-12T13:11:28.535Z,40
2017-02-12T13:12:36.629Z,44
2017-02-12T13:13:44.714Z,40
2017-02-12T13:14:52.798Z,44
2017-02-12T13:16:00.885Z,44
2017-02-12T13:17:08.976Z,40
2017-02-12T13:18:17.061Z,44
2017-02-12T13:19:25.146Z,44
2017-02-12T13:20:33.241Z,40
2017-02-12T13:21:41.330Z,40
2017-02-12T13:22:49.418Z,36
2017-02-12T13:23:57.501Z,36
2017-02-12T13:25:05.595Z,32
2017-02-12T13:26:13.674Z,32
2017-02-12T13:27:21.756Z,36
2017-02-12T13:28:29.852Z,36
2017-02-12T13:29:37.941Z,32
2017-02-12T13:30:46.024Z,32
2017-02-12T13:31:54.122Z,32
2017-02-12T13:33:02.202Z,32
2017-02-12T13:34:10.289Z,32
2017-02-12T13:35:18.537Z,36
2017-02-12T13:36:26.463Z,32
2017-02-12T13:37:34.549Z,36
2017-02-12T13:38:42.639Z,36
2017-02-12T13:39:50.732Z,36
2017-02-12T13:40:58.823Z,36
2017-02-12T13:42:06.903Z,36
2017-02-12T13:43:14.990Z,40
2017-02-12T13:44:23.080Z,40
2017-02-12T13:45:31.176Z,32
2017-02-12T13:46:39.262Z,40
2017-02-12T13:47:47.346Z,36
2017-02-12T13:48:55.434Z,40
2017-02-12T13:50:03.527Z,36
2017-02-12T13:51:11.675Z,32
2017-02-12T13:52:19.703Z,36
2017-02-12T13:53:27.793Z,32
2017-02-12T13:54:35.879Z,32
2017-02-12T13:55:43.970Z,36
2017-02-12T13:56:52.057Z,36
2017-02-12T13:58:00.146Z,36
2017-02-12T13:59:08.231Z,36
2017-02-12T14:00:16.320Z,36
2017-02-12T14:01:24.406Z,40
2017-02-12T14:02:32.489Z,36
2017-02-12T14:03:40.583Z,36
2017-02-12T14:04:48.672Z,36
2017-02-12T14:05:56.754Z,36
2017-02-12T14:07:04.842Z,36
2017-02-12T14:08:12.936Z,36
2017-02-12T14:09:21.024Z,40
2017-02-12T14:10:29.116Z,48
2017-02-12T14:11:37.200Z,36
2017-02-12T14:12:45.287Z,32
2017-02-12T14:13:53.366Z,36
2017-02-12T14:15:01.456Z,36
2017-02-12T14:16:09.546Z,36
2017-02-12T14:17:17.638Z,32
2017-02-12T14:18:25.727Z,28
2017-02-12T14:19:33.818Z,32
2017-02-12T14:20:41.903Z,32
2017-02-12T14:21:49.991Z,32
2017-02-12T14:22:58.081Z,36
2017-02-12T14:24:06.173Z,32
2017-02-12T14:25:14.260Z,28
2017-02-12T14:26:22.345Z,40
2017-02-12T14:27:30.436Z,40
2017-02-12T14:28:38.523Z,32
2017-02-12T14:29:46.642Z,32
2017-02-12T14:30:54.700Z,28
2017-02-12T14:32:02.795Z,28
2017-02-12T14:33:10.888Z,28
2017-02-12T14:34:18.972Z,28
2017-02-12T14:35:27.061Z,28
2017-02-12T14:36:35.152Z,28
2017-02-12T14:37:43.236Z,28
2017-02-12T14:38:51.321Z,28
2017-02-12T14:39:59.439Z,28
2017-02-12T14:41:07.507Z,28
2017-02-12T14:42:15.591Z,20
2017-02-12T14:43:23.688Z,20
2017-02-12T14:44:31.778Z,24
2017-02-12T14:45:39.861Z,20
2017-02-12T14:46:47.949Z,20
2017-02-12T14:47:56.033Z,20
2017-02-12T14:49:04.120Z,20
2017-02-12T14:50:12.203Z,20
2017-02-12T14:51:20.304Z,24
2017-02-12T14:52:28.390Z,24
2017-02-12T14:53:36.474Z,40
2017-02-12T14:54:44.610Z,28
2017-02-12T14:55:52.651Z,20
2017-02-12T14:57:00.738Z,20
2017-02-12T14:58:08.822Z,20
2017-02-12T14:59:16.917Z,16
2017-02-12T15:00:25.005Z,20
2017-02-12T15:01:33.091Z,20
2017-02-12T15:02:41.180Z,16
2017-02-12T15:03:49.276Z,20
2017-02-12T15:04:57.360Z,16
2017-02-12T15:06:05.446Z,16
2017-02-12T15:07:13.541Z,16
2017-02-12T15:08:21.623Z,16
2017-02-12T15:09:29.708Z,16
2017-02-12T15:10:37.796Z,12
2017-02-12T15:11:45.884Z,16
2017-02-12T15:12:53.979Z,12
2017-02-12T15:14:02.060Z,16
2017-02-12T15:15:10.151Z,16
2017-02-12T15:16:18.246Z,16
2017-02-12T15:17:26.332Z,12
2017-02-12T15:18:34.421Z,12
2017-02-12T15:19:42.512Z,12
2017-02-12T15:20:50.605Z,12
2017-02-12T15:21:58.684Z,8
2017-02-12T15:23:06.772Z,12
2017-02-12T15:24:14.864Z,12
2017-02-12T15:25:22.950Z,12
2017-02-12T15:26:31.042Z,12
2017-02-12T15:27:39.128Z,12
2017-02-12T15:28:47.214Z,12
2017-02-12T15:29:55.302Z,8
2017-02-12T15:31:03.392Z,8
2017-02-12T15:32:11.478Z,12
2017-02-12T15:33:19.563Z,8
2017-02-12T15:34:27.655Z,8
2017-02-12T15:35:35.741Z,12
2017-02-12T15:36:43.831Z,12
2017-02-12T15:37:51.913Z,8
2017-02-12T15:39:00.003Z,8
2017-02-12T15:40:08.091Z,8
2017-02-12T15:41:16.178Z,8
2017-02-12T15:42:24.267Z,8
2017-02-12T15:43:32.356Z,8
2017-02-12T15:44:40.478Z,4
2017-02-12T15:45:48.529Z,8
2017-02-12T15:46:56.625Z,4
2017-02-12T15:48:04.712Z,8
2017-02-12T15:49:12.798Z,8
2017-02-12T15:50:20.887Z,4
2017-02-12T15:51:28.978Z,8
2017-02-12T15:52:37.058Z,4
2017-02-12T15:53:45.150Z,4
2017-02-12T15:54:53.245Z,4
2017-02-12T15:56:01.333Z,4
2017-02-12T15:57:09.426Z,4
2017-02-12T15:58:17.518Z,4
2017-02-12T15:59:25.609Z,4
2017-02-12T16:00:33.696Z,4
2017-02-12T16:01:41.783Z,4
2017-02-12T16:02:49.985Z,4
2017-02-12T16:03:57.954Z,4
2017-02-12T16:05:06.040Z,4
2017-02-12T16:06:14.133Z,4
2017-02-12T16:07:22.231Z,4
2017-02-12T16:08:30.312Z,4
2017-02-12T16:09:38.411Z,4
2017-02-12T16:10:46.503Z,4
2017-02-12T16:11:54.589Z,4
2017-02-12T16:13:02.672Z,4
2017-02-12T16:14:10.767Z,0
2017-02-12T16:15:18.857Z,0
2017-02-12T16:16:26.940Z,0
2017-02-12T16:17:35.029Z,0
2017-02-12T16:18:43.120Z,0
2017-02-12T16:19:51.200Z,4
2017-02-12T16:20:59.290Z,4
2017-02-12T16:22:07.377Z,4
2017-02-12T16:23:15.468Z,4
2017-02-12T16:24:23.554Z,4
2017-02-12T16:25:31.640Z,0
2017-02-12T16:26:39.729Z,0
2017-02-12T16:27:47.811Z,0
2017-02-12T16:28:55.899Z,0